Time;durP1;ratioP1;P1;durP2;ratioP2;P2;SDS_P1;SDS_P2;PMS_P1;PMS_P2;Temp;Humidity;BMP_temperature;BMP_pressure;BME280_temperature;BME280_humidity;BME280_pressure;Samples;Min_cycle;Max_cycle;Signal;HPM_P1;HPM_P2
2021/12/21 00:00:55;;;;;;;;;;;22.60;52.70;;;;;;5091779;28;928;-34
2021/12/21 00:03:22;;;;;;;;;;;22.70;52.70;;;;;;5091659;28;1006;-33
2021/12/21 00:05:49;;;;;;;;;;;22.70;52.70;;;;;;5091367;28;1036;-34
2021/12/21 00:08:17;;;;;;;;;;;22.60;52.60;;;;;;5090838;28;982;-33
2021/12/21 00:10:46;;;;;;;;;;;22.60;52.60;;;;;;5078074;28;1112;-34
2021/12/21 00:13:25;;;;;;;;;;;22.70;52.60;;;;;;5078208;28;1298;-34
2021/12/21 00:15:57;;;;;;;;;;;22.70;52.50;;;;;;5077385;28;991;-33
2021/12/21 00:18:34;;;;;;;;;;;22.60;52.40;;;;;;5077068;28;1906;-33
2021/12/21 00:21:08;;;;;;;;;;;22.70;52.40;;;;;;5077261;27;936;-33
2021/12/21 00:23:39;;;;;;;;;;;22.70;52.50;;;;;;5077038;28;979;-33
2021/12/21 00:26:07;;;;;;;;;;;22.70;52.40;;;;;;5077490;27;970;-33
2021/12/21 00:28:40;;;;;;;;;;;22.70;52.40;;;;;;5077191;28;952;-32
2021/12/21 00:31:07;;;;;;;;;;;22.70;52.30;;;;;;5076978;28;1039;-32
2021/12/21 00:33:33;;;;;;;;;;;22.70;52.30;;;;;;5076908;28;888;-32
2021/12/21 00:36:00;;;;;;;;;;;22.60;52.30;;;;;;5077170;28;1007;-34
2021/12/21 00:38:27;;;;;;;;;;;22.60;52.40;;;;;;5077247;28;1906;-33
2021/12/21 00:40:55;;;;;;;;;;;22.60;52.30;;;;;;5077483;28;1154;-34
2021/12/21 00:43:22;;;;;;;;;;;22.60;52.30;;;;;;5077402;28;1139;-33
2021/12/21 00:45:49;;;;;;;;;;;22.60;52.40;;;;;;5077699;28;944;-33
2021/12/21 00:48:16;;;;;;;;;;;22.60;52.40;;;;;;5077320;28;1819;-34
2021/12/21 00:50:43;;;;;;;;;;;22.60;52.30;;;;;;5077693;28;1015;-32
2021/12/21 00:53:10;;;;;;;;;;;22.60;52.30;;;;;;5077511;28;1010;-34
2021/12/21 00:55:37;;;;;;;;;;;22.60;52.30;;;;;;5077434;28;1001;-34
2021/12/21 00:58:05;;;;;;;;;;;22.60;52.30;;;;;;5077047;28;1983;-34
2021/12/21 01:00:32;;;;;;;;;;;22.60;52.30;;;;;;5077177;28;955;-33
2021/12/21 01:03:04;;;;;;;;;;;22.60;52.30;;;;;;5077069;28;989;-34
2021/12/21 01:05:38;;;;;;;;;;;22.70;52.20;;;;;;5077447;27;997;-32
2021/12/21 01:08:07;;;;;;;;;;;22.60;52.10;;;;;;5077714;27;1035;-33
2021/12/21 01:13:44;;;;;;;;;;;22.70;52.10;;;;;;5078496;27;1186;-34
2021/12/21 01:16:28;;;;;;;;;;;22.60;52.00;;;;;;5077549;27;1042;-36
2021/12/21 01:19:08;;;;;;;;;;;22.70;52.10;;;;;;5077238;28;1909;-38
2021/12/21 01:21:40;;;;;;;;;;;22.70;52.00;;;;;;5076087;28;945;-37
2021/12/21 01:24:24;;;;;;;;;;;22.70;52.00;;;;;;5077022;27;1013;-37
2021/12/21 01:27:05;;;;;;;;;;;22.70;52.00;;;;;;5077268;27;995;-36
2021/12/21 01:29:39;;;;;;;;;;;22.70;51.90;;;;;;5077000;28;980;-37
2021/12/21 01:32:13;;;;;;;;;;;22.70;51.90;;;;;;5076142;28;1786;-35
2021/12/21 01:34:49;;;;;;;;;;;22.70;51.90;;;;;;5076453;28;948;-36
2021/12/21 01:37:23;;;;;;;;;;;22.70;51.90;;;;;;5076799;27;998;-34
2021/12/21 01:39:59;;;;;;;;;;;22.80;51.80;;;;;;5076239;27;1019;-37
2021/12/21 01:42:39;;;;;;;;;;;22.70;51.70;;;;;;5076192;28;1031;-33
2021/12/21 01:50:42;;;;;;;;;;;22.70;51.80;;;;;;5075928;28;610;-34
2021/12/21 01:53:08;;;;;;;;;;;22.70;51.80;;;;;;5076248;28;936;-37
2021/12/21 01:55:35;;;;;;;;;;;22.70;51.70;;;;;;5076377;28;872;-37
2021/12/21 01:58:02;;;;;;;;;;;22.70;51.80;;;;;;5076208;28;1983;-36
2021/12/21 02:00:32;;;;;;;;;;;22.60;51.70;;;;;;5076469;28;955;-34
2021/12/21 02:03:02;;;;;;;;;;;22.60;51.90;;;;;;5079086;28;984;-35
2021/12/21 02:05:29;;;;;;;;;;;22.60;52.00;;;;;;5079565;28;971;-38
2021/12/21 02:07:55;;;;;;;;;;;22.60;51.90;;;;;;5077804;27;1965;-42
2021/12/21 02:10:22;;;;;;;;;;;22.70;52.00;;;;;;5075584;28;976;-44
2021/12/21 02:12:49;;;;;;;;;;;22.60;51.90;;;;;;5075416;28;1015;-40
2021/12/21 02:15:16;;;;;;;;;;;22.60;52.00;;;;;;5076133;28;1009;-43
2021/12/21 02:18:12;;;;;;;;;;;22.50;51.90;;;;;;5075395;27;1981;-39
2021/12/21 02:20:45;;;;;;;;;;;22.50;51.90;;;;;;5076426;27;1004;-41
2021/12/21 02:23:16;;;;;;;;;;;22.50;52.00;;;;;;5075811;28;980;-41
2021/12/21 02:26:05;;;;;;;;;;;22.50;52.00;;;;;;5075979;28;1012;-43
2021/12/21 02:29:09;;;;;;;;;;;22.50;51.90;;;;;;5074587;28;866;-40
2021/12/21 02:31:35;;;;;;;;;;;22.50;51.90;;;;;;5075557;27;2047;-41
2021/12/21 02:34:02;;;;;;;;;;;22.60;51.90;;;;;;5075035;28;1033;-40
2021/12/21 02:36:30;;;;;;;;;;;22.60;52.00;;;;;;5075232;28;939;-40
2021/12/21 02:38:57;;;;;;;;;;;22.60;51.90;;;;;;5075105;28;1983;-44
2021/12/21 02:41:25;;;;;;;;;;;22.60;53.00;;;;;;5075185;28;936;-42
2021/12/21 02:43:51;;;;;;;;;;;22.70;51.80;;;;;;5075259;28;968;-43
2021/12/21 02:46:18;;;;;;;;;;;22.70;51.60;;;;;;5075304;27;916;-40
2021/12/21 02:48:45;;;;;;;;;;;22.70;51.60;;;;;;5075063;28;985;-43
2021/12/21 02:51:12;;;;;;;;;;;22.70;51.60;;;;;;5074964;28;972;-42
2021/12/21 02:53:41;;;;;;;;;;;22.70;51.60;;;;;;5075284;28;937;-43
2021/12/21 02:56:08;;;;;;;;;;;22.80;51.50;;;;;;5075205;28;980;-37
2021/12/21 02:58:35;;;;;;;;;;;22.70;51.50;;;;;;5075158;28;1909;-38
2021/12/21 03:01:01;;;;;;;;;;;22.80;51.50;;;;;;5074374;28;965;-37
2021/12/21 03:03:28;;;;;;;;;;;22.80;51.50;;;;;;5075121;28;996;-37
2021/12/21 03:05:57;;;;;;;;;;;22.70;51.50;;;;;;5075174;28;1100;-38
2021/12/21 03:08:35;;;;;;;;;;;22.80;51.40;;;;;;5074940;28;960;-40
2021/12/21 03:11:09;;;;;;;;;;;22.80;51.40;;;;;;5075494;27;1050;-41
2021/12/21 03:14:03;;;;;;;;;;;22.70;51.50;;;;;;5074890;28;996;-43
2021/12/21 03:16:31;;;;;;;;;;;22.70;51.40;;;;;;5075204;28;936;-41
2021/12/21 03:18:59;;;;;;;;;;;22.80;52.50;;;;;;5074887;28;1902;-45
2021/12/21 03:21:26;;;;;;;;;;;22.70;51.40;;;;;;5075369;27;899;-45
2021/12/21 03:23:53;;;;;;;;;;;22.80;51.40;;;;;;5074613;28;1004;-44
2021/12/21 03:26:21;;;;;;;;;;;22.70;51.40;;;;;;5074565;28;1000;-42
2021/12/21 03:28:48;;;;;;;;;;;22.70;51.40;;;;;;5074341;28;1017;-43
2021/12/21 03:31:14;;;;;;;;;;;22.70;51.40;;;;;;5074075;28;912;-45
2021/12/21 03:33:41;;;;;;;;;;;22.60;51.40;;;;;;5073950;28;1022;-42
2021/12/21 03:36:08;;;;;;;;;;;22.60;51.50;;;;;;5073859;28;968;-42
2021/12/21 03:38:36;;;;;;;;;;;22.60;51.40;;;;;;5073794;28;1906;-45
2021/12/21 03:41:08;;;;;;;;;;;22.60;51.40;;;;;;5074631;28;1015;-44
2021/12/21 03:43:36;;;;;;;;;;;22.60;51.40;;;;;;5074736;28;1035;-43
2021/12/21 03:46:08;;;;;;;;;;;22.60;51.60;;;;;;5078233;28;948;-44
2021/12/21 03:48:35;;;;;;;;;;;22.60;51.60;;;;;;5077952;28;1015;-43
2021/12/21 03:51:02;;;;;;;;;;;22.60;51.50;;;;;;5077873;28;927;-43
2021/12/21 03:53:29;;;;;;;;;;;22.60;51.50;;;;;;5077525;28;1019;-40
2021/12/21 03:56:08;;;;;;;;;;;22.60;51.50;;;;;;5077891;28;1113;-40
2021/12/21 03:58:36;;;;;;;;;;;22.60;51.60;;;;;;5077350;28;1986;-40
2021/12/21 04:01:03;;;;;;;;;;;22.50;51.60;;;;;;5078067;28;932;-41
2021/12/21 04:03:30;;;;;;;;;;;22.50;51.60;;;;;;5078035;28;1015;-40
2021/12/21 04:05:57;;;;;;;;;;;22.50;51.50;;;;;;5078236;28;1002;-41
2021/12/21 04:08:24;;;;;;;;;;;22.50;51.50;;;;;;5077990;28;941;-38
2021/12/21 04:10:50;;;;;;;;;;;22.60;51.50;;;;;;5077878;28;1010;-40
2021/12/21 04:13:17;;;;;;;;;;;22.60;51.60;;;;;;5078555;28;956;-43
2021/12/21 04:15:49;;;;;;;;;;;22.60;51.40;;;;;;5077960;28;912;-43
2021/12/21 04:18:18;;;;;;;;;;;22.60;51.40;;;;;;5077450;28;1993;-43
2021/12/21 04:20:45;;;;;;;;;;;22.60;51.40;;;;;;5077814;28;1102;-39
2021/12/21 04:23:12;;;;;;;;;;;22.60;51.40;;;;;;5077337;28;976;-43
2021/12/21 04:25:39;;;;;;;;;;;22.60;51.40;;;;;;5077590;28;967;-41
2021/12/21 04:28:06;;;;;;;;;;;22.60;51.30;;;;;;5077271;28;999;-39
2021/12/21 04:30:32;;;;;;;;;;;22.60;51.30;;;;;;5077025;28;965;-42
2021/12/21 04:33:01;;;;;;;;;;;22.60;51.30;;;;;;5077067;28;976;-42
2021/12/21 04:35:27;;;;;;;;;;;22.60;51.30;;;;;;5077155;28;1034;-40
2021/12/21 04:37:58;;;;;;;;;;;22.60;51.30;;;;;;5076643;28;941;-39
2021/12/21 04:40:37;;;;;;;;;;;22.60;51.30;;;;;;5076649;28;1906;-39
2021/12/21 04:43:04;;;;;;;;;;;22.60;51.30;;;;;;5077072;28;947;-43
2021/12/21 04:45:31;;;;;;;;;;;22.60;51.20;;;;;;5076908;28;1847;-41
2021/12/21 04:47:58;;;;;;;;;;;22.70;51.00;;;;;;5077283;28;932;-40
2021/12/21 04:50:26;;;;;;;;;;;22.70;51.00;;;;;;5076443;28;984;-42
2021/12/21 04:52:52;;;;;;;;;;;22.70;51.10;;;;;;5076388;28;987;-41
2021/12/21 04:55:19;;;;;;;;;;;22.60;51.00;;;;;;5076301;28;1011;-40
2021/12/21 04:57:46;;;;;;;;;;;22.60;51.20;;;;;;5076196;28;1334;-43
2021/12/21 05:00:13;;;;;;;;;;;22.60;51.10;;;;;;5076788;28;1957;-42
2021/12/21 05:02:40;;;;;;;;;;;22.60;51.10;;;;;;5076590;28;1012;-41
2021/12/21 05:05:07;;;;;;;;;;;22.50;51.10;;;;;;5076760;28;994;-44
2021/12/21 05:07:39;;;;;;;;;;;22.50;51.20;;;;;;5076506;28;932;-45
2021/12/21 05:10:08;;;;;;;;;;;22.50;51.20;;;;;;5075979;28;992;-41
2021/12/21 05:12:36;;;;;;;;;;;22.50;51.20;;;;;;5076449;28;976;-44
2021/12/21 05:15:03;;;;;;;;;;;22.50;51.20;;;;;;5076371;27;960;-44
2021/12/21 05:17:30;;;;;;;;;;;22.50;51.30;;;;;;5075692;28;1008;-42
2021/12/21 05:19:57;;;;;;;;;;;22.50;51.20;;;;;;5076143;28;1980;-47
2021/12/21 05:22:24;;;;;;;;;;;22.50;51.10;;;;;;5076109;28;967;-45
2021/12/21 05:24:52;;;;;;;;;;;22.50;50.90;;;;;;5075882;28;1042;-45
2021/12/21 05:27:19;;;;;;;;;;;22.60;50.90;;;;;;5075563;28;1018;-43
2021/12/21 05:29:46;;;;;;;;;;;22.60;50.80;;;;;;5075997;27;966;-42
2021/12/21 05:32:13;;;;;;;;;;;22.60;50.70;;;;;;5074954;28;1044;-43
2021/12/21 05:34:40;;;;;;;;;;;22.60;50.80;;;;;;5075820;28;948;-44
2021/12/21 05:37:07;;;;;;;;;;;22.70;50.70;;;;;;5075397;28;1004;-44
2021/12/21 05:39:41;;;;;;;;;;;22.70;50.60;;;;;;5074675;28;1988;-45
2021/12/21 05:42:11;;;;;;;;;;;22.60;50.50;;;;;;5074751;28;970;-45
2021/12/21 05:44:38;;;;;;;;;;;22.60;50.60;;;;;;5074490;28;932;-45
2021/12/21 05:47:05;;;;;;;;;;;22.60;50.60;;;;;;5074946;28;1019;-42
2021/12/21 05:49:33;;;;;;;;;;;22.50;50.60;;;;;;5073931;28;945;-44
2021/12/21 05:52:00;;;;;;;;;;;22.50;50.70;;;;;;5075340;28;944;-44
2021/12/21 05:54:27;;;;;;;;;;;22.50;50.70;;;;;;5075010;28;1864;-44
2021/12/21 05:56:54;;;;;;;;;;;22.40;50.80;;;;;;5074115;28;1058;-44
2021/12/21 05:59:22;;;;;;;;;;;22.40;50.90;;;;;;5074156;28;1906;-47
2021/12/21 06:01:49;;;;;;;;;;;22.40;50.80;;;;;;5073713;28;1011;-43
2021/12/21 06:04:15;;;;;;;;;;;22.40;50.90;;;;;;5073087;28;965;-44
2021/12/21 06:06:42;;;;;;;;;;;22.40;50.70;;;;;;5072940;28;973;-43
2021/12/21 06:09:09;;;;;;;;;;;22.40;50.90;;;;;;5073776;28;1042;-45
2021/12/21 06:11:43;;;;;;;;;;;22.40;50.80;;;;;;5073533;28;1040;-45
2021/12/21 06:14:20;;;;;;;;;;;22.40;50.90;;;;;;5073563;28;924;-47
2021/12/21 06:27:43;;;;;;;;;;;22.30;50.80;;;;;;5071381;28;623;-46
2021/12/21 06:30:10;;;;;;;;;;;22.40;50.70;;;;;;5071583;28;1002;-47
2021/12/21 06:32:39;;;;;;;;;;;22.30;50.70;;;;;;5072153;28;932;-42
2021/12/21 06:35:06;;;;;;;;;;;22.30;50.70;;;;;;5072824;28;1524;-43
2021/12/21 06:37:33;;;;;;;;;;;22.30;50.60;;;;;;5071882;28;1432;-43
2021/12/21 06:40:00;;;;;;;;;;;22.40;50.60;;;;;;5071309;28;1991;-42
2021/12/21 06:42:28;;;;;;;;;;;22.40;50.70;;;;;;5071173;28;968;-45
2021/12/21 06:44:58;;;;;;;;;;;22.40;50.70;;;;;;5071544;28;1027;-44
2021/12/21 06:52:55;;;;;;;;;;;22.40;50.80;;;;;;5070992;28;659;-45
2021/12/21 06:55:22;;;;;;;;;;;22.40;50.70;;;;;;5073082;28;975;-46
2021/12/21 06:57:49;;;;;;;;;;;22.40;50.70;;;;;;5072186;28;1098;-44
2021/12/21 07:00:16;;;;;;;;;;;22.40;50.70;;;;;;5072166;28;1987;-44
2021/12/21 07:02:44;;;;;;;;;;;22.40;50.60;;;;;;5072529;28;913;-41
2021/12/21 07:05:12;;;;;;;;;;;22.40;51.00;;;;;;5072310;27;974;-39
2021/12/21 07:07:40;;;;;;;;;;;22.50;50.90;;;;;;5072465;28;975;-39
2021/12/21 07:10:10;;;;;;;;;;;22.50;50.90;;;;;;5072514;28;976;-39
2021/12/21 07:18:29;;;;;;;;;;;22.60;50.90;;;;;;5114407;28;1002;-37
2021/12/21 07:20:58;;;;;;;;;;;22.60;51.00;;;;;;5115932;28;1909;-39
2021/12/21 07:23:25;;;;;;;;;;;22.60;51.10;;;;;;5096156;27;1048;-39
2021/12/21 07:25:52;;;;;;;;;;;22.60;51.10;;;;;;5076264;28;1094;-39
2021/12/21 07:28:19;;;;;;;;;;;22.60;51.10;;;;;;5076057;28;1000;-39
2021/12/21 07:30:47;;;;;;;;;;;22.60;51.00;;;;;;5076315;28;996;-39
2021/12/21 07:33:14;;;;;;;;;;;22.60;51.30;;;;;;5077003;28;963;-38
2021/12/21 07:35:40;;;;;;;;;;;22.60;51.20;;;;;;5076367;28;1055;-41
2021/12/21 07:38:09;;;;;;;;;;;22.60;51.00;;;;;;5070129;28;1027;-40
2021/12/21 07:40:36;;;;;;;;;;;22.50;50.90;;;;;;5073126;28;1898;-40
2021/12/21 07:43:02;;;;;;;;;;;22.50;51.00;;;;;;5076010;28;1011;-40
2021/12/21 07:45:29;;;;;;;;;;;22.50;51.10;;;;;;5075880;28;976;-40
2021/12/21 07:47:56;;;;;;;;;;;22.50;51.00;;;;;;5074033;28;980;-39
2021/12/21 07:50:23;;;;;;;;;;;22.50;51.10;;;;;;5071551;28;1034;-39
2021/12/21 07:52:51;;;;;;;;;;;22.50;51.00;;;;;;5076158;28;879;-37
2021/12/21 07:55:20;;;;;;;;;;;22.50;51.10;;;;;;5076009;28;970;-39
2021/12/21 07:57:46;;;;;;;;;;;22.50;50.80;;;;;;5075372;28;1246;-40
2021/12/21 08:00:14;;;;;;;;;;;22.50;50.80;;;;;;5075243;27;1922;-34
2021/12/21 08:02:41;;;;;;;;;;;22.60;50.90;;;;;;5075754;28;1004;-34
2021/12/21 08:05:09;;;;;;;;;;;22.60;50.70;;;;;;5075302;28;1028;-35
2021/12/21 08:07:44;;;;;;;;;;;22.60;50.70;;;;;;5076118;28;857;-33
2021/12/21 08:10:20;;;;;;;;;;;22.50;50.70;;;;;;5075641;28;1015;-36
2021/12/21 08:12:49;;;;;;;;;;;22.60;50.80;;;;;;5076311;28;936;-36
2021/12/21 08:15:15;;;;;;;;;;;22.50;50.80;;;;;;5075231;28;1059;-33
2021/12/21 08:17:42;;;;;;;;;;;22.50;50.70;;;;;;5075047;28;937;-34
2021/12/21 08:20:09;;;;;;;;;;;22.50;50.80;;;;;;5075254;28;1902;-33
2021/12/21 08:22:36;;;;;;;;;;;22.50;50.80;;;;;;5074798;28;1016;-33
2021/12/21 08:25:03;;;;;;;;;;;22.50;50.60;;;;;;5074750;28;984;-32
2021/12/21 08:27:29;;;;;;;;;;;22.50;50.60;;;;;;5075578;28;984;-35
2021/12/21 08:29:57;;;;;;;;;;;22.50;50.40;;;;;;5074605;28;1007;-34
2021/12/21 08:32:24;;;;;;;;;;;22.50;50.40;;;;;;5075659;28;1868;-32
2021/12/21 08:34:51;;;;;;;;;;;22.60;50.50;;;;;;5074451;28;981;-35
2021/12/21 08:37:18;;;;;;;;;;;22.50;50.40;;;;;;5074452;28;1011;-35
2021/12/21 08:39:45;;;;;;;;;;;22.50;50.50;;;;;;5075664;28;1902;-33
2021/12/21 08:42:14;;;;;;;;;;;22.50;50.70;;;;;;5075478;28;975;-34
2021/12/21 08:44:41;;;;;;;;;;;22.50;50.50;;;;;;5074965;28;951;-32
2021/12/21 08:47:09;;;;;;;;;;;22.50;50.70;;;;;;5074970;28;987;-34
2021/12/21 08:49:36;;;;;;;;;;;22.50;50.70;;;;;;5075431;28;939;-33
2021/12/21 08:52:03;;;;;;;;;;;22.50;50.70;;;;;;5075553;28;916;-39
2021/12/21 08:54:30;;;;;;;;;;;22.50;50.50;;;;;;5075457;28;1047;-40
2021/12/21 08:56:56;;;;;;;;;;;22.50;50.40;;;;;;5074625;28;1200;-40
2021/12/21 08:59:23;;;;;;;;;;;22.50;50.50;;;;;;5074244;28;1416;-40
2021/12/21 09:01:51;;;;;;;;;;;22.50;50.40;;;;;;5072594;28;1988;-40
2021/12/21 09:04:22;;;;;;;;;;;22.50;50.30;;;;;;5073712;28;989;-40
2021/12/21 09:06:48;;;;;;;;;;;22.50;50.30;;;;;;5074145;28;1061;-40
2021/12/21 09:09:15;;;;;;;;;;;22.50;50.40;;;;;;5074496;28;991;-40
2021/12/21 09:11:45;;;;;;;;;;;22.50;50.40;;;;;;5075194;27;983;-40
2021/12/21 09:14:12;;;;;;;;;;;22.60;50.40;;;;;;5073876;28;1301;-36
2021/12/21 09:16:38;;;;;;;;;;;22.60;50.30;;;;;;5073618;28;1046;-40
2021/12/21 09:19:05;;;;;;;;;;;22.60;50.40;;;;;;5073156;28;964;-40
2021/12/21 09:21:33;;;;;;;;;;;22.50;50.20;;;;;;5072897;28;1893;-40
2021/12/21 09:24:00;;;;;;;;;;;22.50;50.30;;;;;;5074028;28;988;-40
2021/12/21 09:26:27;;;;;;;;;;;22.50;50.30;;;;;;5073688;28;1819;-39
2021/12/21 09:28:55;;;;;;;;;;;22.50;50.40;;;;;;5074666;28;998;-40
2021/12/21 09:31:22;;;;;;;;;;;22.50;50.30;;;;;;5074021;28;857;-33
2021/12/21 09:33:49;;;;;;;;;;;22.50;50.30;;;;;;5074205;28;974;-34
2021/12/21 09:36:16;;;;;;;;;;;22.50;50.40;;;;;;5072964;28;963;-34
2021/12/21 09:38:44;;;;;;;;;;;22.50;50.30;;;;;;5073713;28;915;-34
2021/12/21 09:41:12;;;;;;;;;;;22.50;50.30;;;;;;5073343;28;1906;-34
2021/12/21 09:43:41;;;;;;;;;;;22.40;50.30;;;;;;5073505;28;1635;-31
2021/12/21 09:46:08;;;;;;;;;;;22.50;50.30;;;;;;5073904;27;1336;-34
2021/12/21 09:48:35;;;;;;;;;;;22.50;50.40;;;;;;5073531;28;1019;-33
2021/12/21 09:51:01;;;;;;;;;;;22.50;50.20;;;;;;5075137;27;1022;-39
2021/12/21 09:53:29;;;;;;;;;;;22.50;50.30;;;;;;5074168;28;924;-39
2021/12/21 09:55:57;;;;;;;;;;;22.50;50.30;;;;;;5074488;28;952;-34
2021/12/21 09:58:24;;;;;;;;;;;22.50;50.10;;;;;;5073705;28;1022;-33
2021/12/21 10:00:51;;;;;;;;;;;22.50;50.20;;;;;;5073681;28;1977;-34
2021/12/21 10:03:18;;;;;;;;;;;22.50;50.10;;;;;;5072866;28;1016;-34
2021/12/21 10:05:45;;;;;;;;;;;22.50;50.10;;;;;;5073655;28;942;-34
2021/12/21 10:08:13;;;;;;;;;;;22.40;50.20;;;;;;5072546;28;975;-33
2021/12/21 10:10:40;;;;;;;;;;;22.40;50.20;;;;;;5073581;28;1112;-35
2021/12/21 10:13:10;;;;;;;;;;;22.40;50.20;;;;;;5073222;28;972;-34
2021/12/21 10:15:41;;;;;;;;;;;22.40;50.20;;;;;;5072998;28;1015;-34
2021/12/21 10:18:08;;;;;;;;;;;22.40;50.20;;;;;;5072550;28;1015;-42
2021/12/21 10:20:36;;;;;;;;;;;22.40;50.30;;;;;;5073141;28;1910;-38
2021/12/21 10:23:08;;;;;;;;;;;22.40;50.20;;;;;;5071910;28;949;-38
2021/12/21 10:25:39;;;;;;;;;;;22.40;50.20;;;;;;5070567;28;991;-39
2021/12/21 10:28:06;;;;;;;;;;;22.50;50.10;;;;;;5073315;28;992;-38
2021/12/21 10:30:34;;;;;;;;;;;22.40;50.20;;;;;;5073414;28;917;-46
2021/12/21 10:33:01;;;;;;;;;;;22.50;50.10;;;;;;5072164;28;940;-47
2021/12/21 10:35:30;;;;;;;;;;;22.50;49.90;;;;;;5072899;28;967;-37
2021/12/21 10:37:57;;;;;;;;;;;22.60;49.90;;;;;;5072535;28;1028;-45
2021/12/21 10:40:26;;;;;;;;;;;22.60;49.90;;;;;;5073100;28;1988;-37
2021/12/21 10:42:55;;;;;;;;;;;22.60;49.90;;;;;;5073162;28;972;-36
2021/12/21 10:45:26;;;;;;;;;;;22.60;49.80;;;;;;5072941;27;1069;-37
2021/12/21 10:47:55;;;;;;;;;;;22.60;51.10;;;;;;5072471;28;959;-46
2021/12/21 10:50:22;;;;;;;;;;;22.60;49.80;;;;;;5071971;28;1014;-46
2021/12/21 10:52:49;;;;;;;;;;;22.60;49.90;;;;;;5071207;28;1012;-45
2021/12/21 10:55:16;;;;;;;;;;;22.60;49.90;;;;;;5072748;27;908;-53
2021/12/21 10:57:43;;;;;;;;;;;22.60;50.00;;;;;;5071133;28;1101;-38
2021/12/21 11:00:14;;;;;;;;;;;22.60;49.80;;;;;;5070916;28;987;-33
2021/12/21 11:02:41;;;;;;;;;;;22.60;49.90;;;;;;5071746;28;1968;-38
2021/12/21 11:05:10;;;;;;;;;;;22.60;49.90;;;;;;5071843;28;981;-38
2021/12/21 11:07:42;;;;;;;;;;;22.60;49.90;;;;;;5071853;28;953;-38
2021/12/21 11:10:12;;;;;;;;;;;22.50;49.80;;;;;;5072051;28;927;-39
2021/12/21 11:12:43;;;;;;;;;;;22.60;49.90;;;;;;5072984;28;995;-39
2021/12/21 11:15:10;;;;;;;;;;;22.50;49.80;;;;;;5073168;28;991;-39
2021/12/21 11:17:37;;;;;;;;;;;22.50;49.90;;;;;;5072416;28;935;-38
2021/12/21 11:20:04;;;;;;;;;;;22.60;49.90;;;;;;5072675;28;1187;-38
2021/12/21 11:22:33;;;;;;;;;;;22.60;49.90;;;;;;5071817;28;1906;-39
2021/12/21 11:25:00;;;;;;;;;;;22.60;49.70;;;;;;5070895;28;1014;-38
2021/12/21 11:27:27;;;;;;;;;;;22.50;49.80;;;;;;5070328;28;834;-39
2021/12/21 11:29:57;;;;;;;;;;;22.60;49.90;;;;;;5071938;28;1777;-39
2021/12/21 11:32:25;;;;;;;;;;;22.60;49.90;;;;;;5071142;28;1019;-39
2021/12/21 11:37:20;;;;;;;;;;;22.60;49.80;;;;;;5072139;28;987;-38
2021/12/21 11:37:47;;;;;;;;;;;22.60;49.90;;;;;;5071506;27;810;-38
2021/12/21 11:40:15;;;;;;;;;;;22.60;50.00;;;;;;5070844;28;989;-37
2021/12/21 11:42:47;;;;;;;;;;;22.60;49.90;;;;;;5071229;28;1894;-37
2021/12/21 11:45:15;;;;;;;;;;;22.60;50.00;;;;;;5071200;28;920;-32
2021/12/21 11:47:46;;;;;;;;;;;22.60;50.00;;;;;;5070334;28;872;-39
2021/12/21 11:50:12;;;;;;;;;;;22.50;49.90;;;;;;5069846;27;961;-39
2021/12/21 11:52:44;;;;;;;;;;;22.50;49.90;;;;;;5069706;27;996;-39
2021/12/21 11:55:13;;;;;;;;;;;22.60;49.90;;;;;;5070177;28;1008;-33
2021/12/21 11:57:41;;;;;;;;;;;22.60;49.90;;;;;;5069215;28;1128;-33
2021/12/21 12:00:10;;;;;;;;;;;22.60;49.90;;;;;;5070249;28;1207;-32
2021/12/21 12:02:37;;;;;;;;;;;22.60;49.90;;;;;;5070660;28;1898;-39
2021/12/21 12:05:14;;;;;;;;;;;22.60;49.80;;;;;;5071509;27;1039;-38
2021/12/21 12:07:41;;;;;;;;;;;22.60;49.70;;;;;;5072925;28;936;-32
2021/12/21 12:10:09;;;;;;;;;;;22.60;49.70;;;;;;5072908;28;1006;-39
2021/12/21 12:12:37;;;;;;;;;;;22.70;49.80;;;;;;5073562;28;1030;-33
2021/12/21 12:15:06;;;;;;;;;;;22.70;49.70;;;;;;5073418;28;932;-32
2021/12/21 12:17:33;;;;;;;;;;;22.70;49.70;;;;;;5073528;28;1003;-31
2021/12/21 12:20:04;;;;;;;;;;;22.70;49.80;;;;;;5073746;28;948;-34
2021/12/21 12:22:33;;;;;;;;;;;22.70;49.60;;;;;;5074033;28;1906;-32
2021/12/21 12:24:59;;;;;;;;;;;22.70;49.70;;;;;;5074066;28;1134;-31
2021/12/21 12:27:27;;;;;;;;;;;22.70;49.70;;;;;;5071563;28;991;-33
2021/12/21 12:29:57;;;;;;;;;;;22.70;49.60;;;;;;5074523;28;1008;-37
2021/12/21 12:32:31;;;;;;;;;;;22.70;49.70;;;;;;5073925;28;937;-33
2021/12/21 12:35:01;;;;;;;;;;;22.70;49.80;;;;;;5074855;28;988;-32
2021/12/21 12:37:28;;;;;;;;;;;22.70;49.70;;;;;;5073511;28;928;-39
2021/12/21 12:39:56;;;;;;;;;;;22.70;49.60;;;;;;5073979;27;1060;-31
2021/12/21 12:42:25;;;;;;;;;;;22.70;49.80;;;;;;5073359;28;1902;-32
2021/12/21 12:45:03;;;;;;;;;;;22.70;49.80;;;;;;5073467;28;975;-33
2021/12/21 12:47:30;;;;;;;;;;;22.70;49.80;;;;;;5073096;28;1089;-38
2021/12/21 12:49:57;;;;;;;;;;;22.60;50.80;;;;;;5072981;28;943;-38
2021/12/21 12:52:28;;;;;;;;;;;22.60;49.70;;;;;;5072315;28;1023;-38
2021/12/21 12:54:56;;;;;;;;;;;22.70;49.70;;;;;;5073626;28;995;-39
2021/12/21 12:57:27;;;;;;;;;;;22.60;49.80;;;;;;5073611;28;1039;-39
2021/12/21 12:59:54;;;;;;;;;;;22.60;49.90;;;;;;5074463;27;923;-36
2021/12/21 13:02:24;;;;;;;;;;;22.60;49.90;;;;;;5073125;28;1952;-38
2021/12/21 13:04:51;;;;;;;;;;;22.60;49.80;;;;;;5074784;28;1003;-39
2021/12/21 13:07:25;;;;;;;;;;;22.60;49.70;;;;;;5074415;28;933;-37
2021/12/21 13:09:51;;;;;;;;;;;22.70;49.80;;;;;;5074070;28;992;-39
2021/12/21 13:12:18;;;;;;;;;;;22.70;49.70;;;;;;5073832;28;1121;-39
2021/12/21 13:14:53;;;;;;;;;;;22.70;49.70;;;;;;5074667;28;873;-39
2021/12/21 13:17:19;;;;;;;;;;;22.70;49.80;;;;;;5073579;28;948;-34
2021/12/21 13:19:47;;;;;;;;;;;22.70;49.80;;;;;;5073919;28;1001;-34
2021/12/21 13:22:14;;;;;;;;;;;22.70;49.80;;;;;;5073712;28;1984;-34
2021/12/21 13:24:43;;;;;;;;;;;22.70;49.60;;;;;;5074025;28;952;-35
2021/12/21 13:27:11;;;;;;;;;;;22.70;49.70;;;;;;5073988;28;1106;-32
2021/12/21 13:29:38;;;;;;;;;;;22.70;49.80;;;;;;5073721;28;1014;-38
2021/12/21 13:32:08;;;;;;;;;;;22.70;49.60;;;;;;5073408;28;849;-38
2021/12/21 13:34:35;;;;;;;;;;;22.70;49.80;;;;;;5073589;27;1022;-39
2021/12/21 13:37:05;;;;;;;;;;;22.70;49.70;;;;;;5072478;28;955;-33
2021/12/21 13:39:34;;;;;;;;;;;22.70;49.80;;;;;;5073950;27;1011;-34
2021/12/21 13:42:02;;;;;;;;;;;22.70;49.80;;;;;;5072783;28;1902;-33
2021/12/21 13:44:30;;;;;;;;;;;22.70;49.80;;;;;;5071779;28;968;-33
2021/12/21 13:47:00;;;;;;;;;;;22.70;49.80;;;;;;5073661;28;932;-31
2021/12/21 13:49:26;;;;;;;;;;;22.70;49.70;;;;;;5072369;28;1027;-33
2021/12/21 13:51:54;;;;;;;;;;;22.70;49.70;;;;;;5072604;28;919;-34
2021/12/21 13:54:22;;;;;;;;;;;22.70;49.70;;;;;;5072524;28;935;-33
2021/12/21 13:56:50;;;;;;;;;;;22.70;49.70;;;;;;5073287;27;1092;-38
2021/12/21 13:59:17;;;;;;;;;;;22.80;49.70;;;;;;5072955;28;1023;-39
2021/12/21 14:01:46;;;;;;;;;;;22.80;49.70;;;;;;5073043;28;1914;-37
2021/12/21 14:04:14;;;;;;;;;;;22.80;49.70;;;;;;5073241;28;984;-37
2021/12/21 14:06:41;;;;;;;;;;;22.80;49.50;;;;;;5072643;28;940;-37
2021/12/21 14:09:09;;;;;;;;;;;22.80;49.50;;;;;;5072822;28;977;-38
2021/12/21 14:11:38;;;;;;;;;;;22.70;49.60;;;;;;5072541;27;1120;-37
2021/12/21 14:14:11;;;;;;;;;;;22.70;49.60;;;;;;5074028;28;1081;-39
2021/12/21 14:16:39;;;;;;;;;;;22.80;49.60;;;;;;5072997;28;992;-37
2021/12/21 14:19:07;;;;;;;;;;;22.70;49.60;;;;;;5066255;28;917;-37
2021/12/21 14:21:36;;;;;;;;;;;22.70;49.60;;;;;;5069850;27;1977;-37
2021/12/21 14:24:04;;;;;;;;;;;22.80;49.60;;;;;;5072457;28;1007;-37
2021/12/21 14:26:31;;;;;;;;;;;22.70;49.60;;;;;;5073263;28;948;-37
2021/12/21 14:29:01;;;;;;;;;;;22.70;50.80;;;;;;5067595;28;995;-40
2021/12/21 14:31:31;;;;;;;;;;;22.70;49.70;;;;;;5072680;27;931;-37
2021/12/21 14:34:00;;;;;;;;;;;22.70;49.70;;;;;;5072626;28;1012;-46
2021/12/21 14:36:27;;;;;;;;;;;22.70;49.60;;;;;;5070809;28;980;-46
2021/12/21 14:38:55;;;;;;;;;;;22.70;49.70;;;;;;5064115;28;957;-46
2021/12/21 14:41:24;;;;;;;;;;;22.70;49.80;;;;;;5070089;28;904;-45
2021/12/21 14:44:06;;;;;;;;;;;22.70;49.70;;;;;;5072337;28;1883;-36
2021/12/21 14:46:34;;;;;;;;;;;22.70;49.70;;;;;;5072170;28;995;-37
2021/12/21 14:49:02;;;;;;;;;;;22.70;49.70;;;;;;5062752;28;908;-37
2021/12/21 14:51:37;;;;;;;;;;;22.70;49.80;;;;;;5070852;28;873;-37
2021/12/21 14:54:08;;;;;;;;;;;22.70;49.80;;;;;;5071340;28;1028;-39
2021/12/21 14:56:36;;;;;;;;;;;22.70;49.70;;;;;;5071113;28;928;-38
2021/12/21 14:59:04;;;;;;;;;;;22.70;49.70;;;;;;5062927;28;994;-38
2021/12/21 15:01:37;;;;;;;;;;;22.70;49.70;;;;;;5071171;28;1770;-38
2021/12/21 15:04:17;;;;;;;;;;;22.70;49.80;;;;;;5069970;28;989;-38
2021/12/21 15:06:44;;;;;;;;;;;22.60;49.70;;;;;;5070569;28;897;-39
2021/12/21 15:09:11;;;;;;;;;;;22.60;49.60;;;;;;5065320;28;991;-38
2021/12/21 15:11:43;;;;;;;;;;;22.70;49.80;;;;;;5070683;28;987;-37
2021/12/21 15:14:10;;;;;;;;;;;22.60;49.60;;;;;;5071965;28;939;-37
2021/12/21 15:16:38;;;;;;;;;;;22.70;50.70;;;;;;5071216;28;948;-37